sensor_id;sensor_type;location;lat;lon;timestamp;pressure;altitude;pressure_sealevel;temperature;humidity
16613;BME280;8419;52.358;9.752;2023-03-25T00:01:59;99513.00;;;19.22;44.54
16613;BME280;8419;52.358;9.752;2023-03-25T00:04:49;99515.00;;;19.20;44.48
16613;BME280;8419;52.358;9.752;2023-03-25T00:07:34;99498.00;;;19.05;44.83
16613;BME280;8419;52.358;9.752;2023-03-25T00:10:20;99501.00;;;19.02;44.98
16613;BME280;8419;52.358;9.752;2023-03-25T00:13:06;99507.00;;;18.97;44.95
16613;BME280;8419;52.358;9.752;2023-03-25T00:15:52;99506.00;;;19.05;44.63
16613;BME280;8419;52.358;9.752;2023-03-25T00:18:41;99496.00;;;19.07;44.46
16613;BME280;8419;52.358;9.752;2023-03-25T00:21:27;99498.00;;;18.90;44.90
16613;BME280;8419;52.358;9.752;2023-03-25T00:24:13;99504.00;;;18.69;45.29
16613;BME280;8419;52.358;9.752;2023-03-25T00:27:01;99502.00;;;18.79;45.09
16613;BME280;8419;52.358;9.752;2023-03-25T00:29:48;99493.00;;;18.69;45.26
16613;BME280;8419;52.358;9.752;2023-03-25T00:32:33;99494.00;;;18.68;45.27
16613;BME280;8419;52.358;9.752;2023-03-25T00:35:19;99494.00;;;18.75;45.07
16613;BME280;8419;52.358;9.752;2023-03-25T00:38:05;99489.00;;;18.72;45.00
16613;BME280;8419;52.358;9.752;2023-03-25T00:40:51;99492.00;;;18.70;44.98
16613;BME280;8419;52.358;9.752;2023-03-25T00:43:37;99496.00;;;18.60;44.95
16613;BME280;8419;52.358;9.752;2023-03-25T00:46:24;99497.00;;;18.64;44.73
16613;BME280;8419;52.358;9.752;2023-03-25T00:49:11;99506.00;;;18.74;44.41
16613;BME280;8419;52.358;9.752;2023-03-25T00:51:58;99505.00;;;18.69;44.45
16613;BME280;8419;52.358;9.752;2023-03-25T00:54:43;99511.00;;;18.71;44.25
16613;BME280;8419;52.358;9.752;2023-03-25T00:57:29;99517.00;;;18.66;44.23
16613;BME280;8419;52.358;9.752;2023-03-25T01:00:17;99512.00;;;18.65;44.24
16613;BME280;8419;52.358;9.752;2023-03-25T01:03:03;99521.00;;;18.72;44.11
16613;BME280;8419;52.358;9.752;2023-03-25T01:05:49;99513.00;;;18.73;44.06
16613;BME280;8419;52.358;9.752;2023-03-25T01:08:34;99516.00;;;18.77;44.01
16613;BME280;8419;52.358;9.752;2023-03-25T01:11:21;99512.00;;;18.74;43.89
16613;BME280;8419;52.358;9.752;2023-03-25T01:14:11;99504.00;;;18.81;43.60
16613;BME280;8419;52.358;9.752;2023-03-25T01:16:58;99509.00;;;18.84;43.64
16613;BME280;8419;52.358;9.752;2023-03-25T01:19:44;99499.00;;;18.79;43.74
16613;BME280;8419;52.358;9.752;2023-03-25T01:22:29;99497.00;;;18.80;43.49
16613;BME280;8419;52.358;9.752;2023-03-25T01:25:15;99509.00;;;18.84;43.28
16613;BME280;8419;52.358;9.752;2023-03-25T01:28:01;99498.00;;;18.81;43.35
16613;BME280;8419;52.358;9.752;2023-03-25T01:30:46;99504.00;;;18.98;42.71
16613;BME280;8419;52.358;9.752;2023-03-25T01:33:32;99501.00;;;19.11;42.42
16613;BME280;8419;52.358;9.752;2023-03-25T01:36:18;99508.00;;;19.19;42.36
16613;BME280;8419;52.358;9.752;2023-03-25T01:39:07;99502.00;;;19.25;42.45
16613;BME280;8419;52.358;9.752;2023-03-25T01:41:53;99498.00;;;19.31;42.23
16613;BME280;8419;52.358;9.752;2023-03-25T01:45:12;99502.00;;;19.36;41.98
16613;BME280;8419;52.358;9.752;2023-03-25T01:48:02;99505.00;;;19.43;41.91
16613;BME280;8419;52.358;9.752;2023-03-25T01:50:53;99504.00;;;19.44;41.46
16613;BME280;8419;52.358;9.752;2023-03-25T01:53:40;99494.00;;;19.43;41.38
16613;BME280;8419;52.358;9.752;2023-03-25T01:56:27;99496.00;;;19.46;41.42
16613;BME280;8419;52.358;9.752;2023-03-25T01:59:17;99493.00;;;19.52;41.36
16613;BME280;8419;52.358;9.752;2023-03-25T02:02:05;99489.00;;;19.56;41.07
16613;BME280;8419;52.358;9.752;2023-03-25T02:04:56;99491.00;;;19.59;41.02
16613;BME280;8419;52.358;9.752;2023-03-25T02:07:44;99487.00;;;19.54;41.02
16613;BME280;8419;52.358;9.752;2023-03-25T02:10:32;99481.00;;;19.53;40.81
16613;BME280;8419;52.358;9.752;2023-03-25T02:13:18;99485.00;;;19.57;40.68
16613;BME280;8419;52.358;9.752;2023-03-25T02:16:14;99486.00;;;19.51;40.79
16613;BME280;8419;52.358;9.752;2023-03-25T02:19:19;99492.00;;;19.42;40.52
16613;BME280;8419;52.358;9.752;2023-03-25T02:26:30;99482.00;;;19.41;40.65
16613;BME280;8419;52.358;9.752;2023-03-25T02:29:31;99488.00;;;19.37;40.51
16613;BME280;8419;52.358;9.752;2023-03-25T02:32:35;99483.00;;;19.22;40.73
16613;BME280;8419;52.358;9.752;2023-03-25T02:35:30;99497.00;;;19.09;41.06
16613;BME280;8419;52.358;9.752;2023-03-25T02:38:27;99486.00;;;19.02;41.25
16613;BME280;8419;52.358;9.752;2023-03-25T02:41:21;99490.00;;;19.05;41.30
16613;BME280;8419;52.358;9.752;2023-03-25T02:44:12;99493.00;;;18.84;41.44
16613;BME280;8419;52.358;9.752;2023-03-25T02:47:01;99496.00;;;18.68;41.65
16613;BME280;8419;52.358;9.752;2023-03-25T02:49:51;99482.00;;;18.61;41.87
16613;BME280;8419;52.358;9.752;2023-03-25T02:52:39;99483.00;;;18.62;41.86
16613;BME280;8419;52.358;9.752;2023-03-25T02:55:30;99479.00;;;18.66;41.77
16613;BME280;8419;52.358;9.752;2023-03-25T02:58:19;99479.00;;;18.69;41.58
16613;BME280;8419;52.358;9.752;2023-03-25T03:01:06;99473.00;;;18.69;41.63
16613;BME280;8419;52.358;9.752;2023-03-25T03:03:54;99470.00;;;18.67;41.68
16613;BME280;8419;52.358;9.752;2023-03-25T03:06:41;99477.00;;;18.63;41.82
16613;BME280;8419;52.358;9.752;2023-03-25T03:09:36;99461.00;;;18.58;41.96
16613;BME280;8419;52.358;9.752;2023-03-25T03:12:35;99470.00;;;18.47;42.12
16613;BME280;8419;52.358;9.752;2023-03-25T03:15:41;99470.00;;;18.44;42.29
16613;BME280;8419;52.358;9.752;2023-03-25T03:18:40;99467.00;;;18.43;42.30
16613;BME280;8419;52.358;9.752;2023-03-25T03:21:33;99464.00;;;18.45;42.27
16613;BME280;8419;52.358;9.752;2023-03-25T03:24:26;99455.00;;;18.47;42.24
16613;BME280;8419;52.358;9.752;2023-03-25T03:27:14;99454.00;;;18.36;42.44
16613;BME280;8419;52.358;9.752;2023-03-25T03:30:11;99445.00;;;18.23;42.49
16613;BME280;8419;52.358;9.752;2023-03-25T03:33:06;99457.00;;;18.09;42.52
16613;BME280;8419;52.358;9.752;2023-03-25T03:35:56;99466.00;;;18.09;42.51
16613;BME280;8419;52.358;9.752;2023-03-25T03:38:47;99463.00;;;18.16;42.29
16613;BME280;8419;52.358;9.752;2023-03-25T03:41:37;99466.00;;;18.17;42.12
16613;BME280;8419;52.358;9.752;2023-03-25T03:44:29;99466.00;;;18.21;41.85
16613;BME280;8419;52.358;9.752;2023-03-25T03:47:18;99474.00;;;18.24;41.84
16613;BME280;8419;52.358;9.752;2023-03-25T03:50:09;99466.00;;;18.37;41.60
16613;BME280;8419;52.358;9.752;2023-03-25T03:53:01;99457.00;;;18.33;41.72
16613;BME280;8419;52.358;9.752;2023-03-25T03:55:50;99467.00;;;18.29;41.68
16613;BME280;8419;52.358;9.752;2023-03-25T03:58:38;99460.00;;;18.35;41.36
16613;BME280;8419;52.358;9.752;2023-03-25T04:01:30;99465.00;;;18.22;41.59
16613;BME280;8419;52.358;9.752;2023-03-25T04:04:22;99467.00;;;18.19;41.66
16613;BME280;8419;52.358;9.752;2023-03-25T04:07:13;99468.00;;;18.18;41.63
16613;BME280;8419;52.358;9.752;2023-03-25T04:10:04;99467.00;;;18.10;41.67
16613;BME280;8419;52.358;9.752;2023-03-25T04:13:00;99463.00;;;18.05;41.77
16613;BME280;8419;52.358;9.752;2023-03-25T04:15:48;99475.00;;;18.09;41.68
16613;BME280;8419;52.358;9.752;2023-03-25T04:18:34;99477.00;;;18.07;41.56
16613;BME280;8419;52.358;9.752;2023-03-25T04:21:19;99469.00;;;17.98;41.63
16613;BME280;8419;52.358;9.752;2023-03-25T04:24:05;99480.00;;;18.02;41.53
16613;BME280;8419;52.358;9.752;2023-03-25T04:26:52;99480.00;;;18.08;41.38
16613;BME280;8419;52.358;9.752;2023-03-25T04:29:37;99478.00;;;18.10;41.10
16613;BME280;8419;52.358;9.752;2023-03-25T04:32:24;99479.00;;;18.21;40.86
16613;BME280;8419;52.358;9.752;2023-03-25T04:35:12;99482.00;;;18.06;41.05
16613;BME280;8419;52.358;9.752;2023-03-25T04:37:58;99483.00;;;17.97;40.91
16613;BME280;8419;52.358;9.752;2023-03-25T04:40:44;99481.00;;;17.88;40.99
16613;BME280;8419;52.358;9.752;2023-03-25T04:43:31;99484.00;;;17.69;41.14
16613;BME280;8419;52.358;9.752;2023-03-25T04:46:17;99471.00;;;17.78;40.83
16613;BME280;8419;52.358;9.752;2023-03-25T04:49:03;99479.00;;;17.77;40.85
16613;BME280;8419;52.358;9.752;2023-03-25T04:51:50;99472.00;;;17.79;40.92
16613;BME280;8419;52.358;9.752;2023-03-25T04:54:36;99473.00;;;17.86;40.88
16613;BME280;8419;52.358;9.752;2023-03-25T04:57:23;99473.00;;;17.96;40.79
16613;BME280;8419;52.358;9.752;2023-03-25T05:00:13;99478.00;;;17.94;40.88
16613;BME280;8419;52.358;9.752;2023-03-25T05:02:59;99484.00;;;17.91;40.81
16613;BME280;8419;52.358;9.752;2023-03-25T05:05:45;99477.00;;;17.97;40.73
16613;BME280;8419;52.358;9.752;2023-03-25T05:08:33;99495.00;;;17.93;40.62
16613;BME280;8419;52.358;9.752;2023-03-25T05:11:19;99492.00;;;17.83;40.78
16613;BME280;8419;52.358;9.752;2023-03-25T05:14:07;99474.00;;;17.69;41.00
16613;BME280;8419;52.358;9.752;2023-03-25T05:16:52;99476.00;;;17.63;41.28
16613;BME280;8419;52.358;9.752;2023-03-25T05:19:39;99487.00;;;17.54;41.53
16613;BME280;8419;52.358;9.752;2023-03-25T05:22:28;99494.00;;;17.48;41.74
16613;BME280;8419;52.358;9.752;2023-03-25T05:25:13;99499.00;;;17.49;41.75
16613;BME280;8419;52.358;9.752;2023-03-25T05:27:58;99493.00;;;17.42;41.94
16613;BME280;8419;52.358;9.752;2023-03-25T05:30:44;99486.00;;;17.25;42.27
16613;BME280;8419;52.358;9.752;2023-03-25T05:33:30;99487.00;;;17.19;42.45
16613;BME280;8419;52.358;9.752;2023-03-25T05:36:15;99492.00;;;17.15;42.50
16613;BME280;8419;52.358;9.752;2023-03-25T05:39:01;99475.00;;;17.06;42.70
16613;BME280;8419;52.358;9.752;2023-03-25T05:41:48;99480.00;;;16.88;43.04
16613;BME280;8419;52.358;9.752;2023-03-25T05:44:37;99485.00;;;16.73;43.26
16613;BME280;8419;52.358;9.752;2023-03-25T05:47:34;99492.00;;;16.69;43.44
16613;BME280;8419;52.358;9.752;2023-03-25T05:50:21;99496.00;;;16.62;43.77
16613;BME280;8419;52.358;9.752;2023-03-25T05:53:07;99494.00;;;16.66;43.96
16613;BME280;8419;52.358;9.752;2023-03-25T05:55:54;99487.00;;;16.76;43.95
16613;BME280;8419;52.358;9.752;2023-03-25T05:58:39;99498.00;;;16.84;43.97
16613;BME280;8419;52.358;9.752;2023-03-25T06:01:25;99489.00;;;17.01;43.76
16613;BME280;8419;52.358;9.752;2023-03-25T06:04:11;99482.00;;;17.10;43.73
16613;BME280;8419;52.358;9.752;2023-03-25T06:06:57;99484.00;;;17.14;43.77
16613;BME280;8419;52.358;9.752;2023-03-25T06:09:44;99485.00;;;17.26;43.73
16613;BME280;8419;52.358;9.752;2023-03-25T06:12:30;99492.00;;;17.42;43.47
16613;BME280;8419;52.358;9.752;2023-03-25T06:15:17;99482.00;;;17.55;43.29
16613;BME280;8419;52.358;9.752;2023-03-25T06:18:14;99486.00;;;17.62;43.10
16613;BME280;8419;52.358;9.752;2023-03-25T06:21:00;99479.00;;;17.69;43.01
16613;BME280;8419;52.358;9.752;2023-03-25T06:23:47;99488.00;;;17.71;42.83
16613;BME280;8419;52.358;9.752;2023-03-25T06:26:33;99497.00;;;17.76;42.72
16613;BME280;8419;52.358;9.752;2023-03-25T06:29:18;99500.00;;;17.82;42.62
16613;BME280;8419;52.358;9.752;2023-03-25T06:32:04;99493.00;;;17.86;42.59
16613;BME280;8419;52.358;9.752;2023-03-25T06:34:50;99488.00;;;18.05;42.32
16613;BME280;8419;52.358;9.752;2023-03-25T06:37:36;99494.00;;;18.15;42.16
16613;BME280;8419;52.358;9.752;2023-03-25T06:40:22;99491.00;;;18.25;41.87
16613;BME280;8419;52.358;9.752;2023-03-25T06:43:08;99491.00;;;18.34;41.72
16613;BME280;8419;52.358;9.752;2023-03-25T06:45:53;99504.00;;;18.41;41.63
16613;BME280;8419;52.358;9.752;2023-03-25T06:48:39;99510.00;;;18.52;41.28
16613;BME280;8419;52.358;9.752;2023-03-25T06:51:27;99500.00;;;18.63;41.08
16613;BME280;8419;52.358;9.752;2023-03-25T06:54:13;99501.00;;;18.66;40.99
16613;BME280;8419;52.358;9.752;2023-03-25T06:56:59;99496.00;;;18.63;40.80
16613;BME280;8419;52.358;9.752;2023-03-25T06:59:44;99500.00;;;18.67;40.71
16613;BME280;8419;52.358;9.752;2023-03-25T07:02:31;99498.00;;;18.66;40.65
16613;BME280;8419;52.358;9.752;2023-03-25T07:05:17;99509.00;;;18.71;40.60
16613;BME280;8419;52.358;9.752;2023-03-25T07:08:03;99505.00;;;18.76;40.49
16613;BME280;8419;52.358;9.752;2023-03-25T07:10:48;99502.00;;;18.83;40.45
16613;BME280;8419;52.358;9.752;2023-03-25T07:13:34;99504.00;;;18.91;40.20
16613;BME280;8419;52.358;9.752;2023-03-25T07:16:20;99504.00;;;18.84;40.11
16613;BME280;8419;52.358;9.752;2023-03-25T07:19:05;99498.00;;;18.77;40.03
16613;BME280;8419;52.358;9.752;2023-03-25T07:21:51;99500.00;;;18.77;39.96
16613;BME280;8419;52.358;9.752;2023-03-25T07:24:36;99508.00;;;18.96;39.64
16613;BME280;8419;52.358;9.752;2023-03-25T07:27:21;99516.00;;;19.11;39.19
16613;BME280;8419;52.358;9.752;2023-03-25T07:30:08;99509.00;;;19.10;39.08
16613;BME280;8419;52.358;9.752;2023-03-25T07:32:54;99496.00;;;19.01;39.16
16613;BME280;8419;52.358;9.752;2023-03-25T07:35:39;99513.00;;;18.99;38.95
16613;BME280;8419;52.358;9.752;2023-03-25T07:38:27;99505.00;;;19.04;38.89
16613;BME280;8419;52.358;9.752;2023-03-25T07:41:13;99515.00;;;19.18;38.53
16613;BME280;8419;52.358;9.752;2023-03-25T07:44:00;99534.00;;;19.26;38.39
16613;BME280;8419;52.358;9.752;2023-03-25T07:46:45;99541.00;;;19.10;38.55
16613;BME280;8419;52.358;9.752;2023-03-25T07:49:31;99535.00;;;18.82;38.92
16613;BME280;8419;52.358;9.752;2023-03-25T07:52:16;99540.00;;;18.61;39.37
16613;BME280;8419;52.358;9.752;2023-03-25T07:55:02;99544.00;;;18.56;39.52
16613;BME280;8419;52.358;9.752;2023-03-25T07:57:47;99548.00;;;18.54;39.71
16613;BME280;8419;52.358;9.752;2023-03-25T08:00:33;99541.00;;;18.59;39.90
16613;BME280;8419;52.358;9.752;2023-03-25T08:03:18;99541.00;;;18.82;39.72
16613;BME280;8419;52.358;9.752;2023-03-25T08:06:06;99537.00;;;18.97;39.52
16613;BME280;8419;52.358;9.752;2023-03-25T08:08:51;99524.00;;;19.17;39.00
16613;BME280;8419;52.358;9.752;2023-03-25T08:11:37;99527.00;;;19.16;38.92
16613;BME280;8419;52.358;9.752;2023-03-25T08:14:23;99518.00;;;19.31;38.94
16613;BME280;8419;52.358;9.752;2023-03-25T08:17:08;99532.00;;;19.48;38.77
16613;BME280;8419;52.358;9.752;2023-03-25T08:19:54;99535.00;;;19.58;38.28
16613;BME280;8419;52.358;9.752;2023-03-25T08:22:40;99535.00;;;19.54;38.29
16613;BME280;8419;52.358;9.752;2023-03-25T08:25:28;99533.00;;;19.47;38.54
16613;BME280;8419;52.358;9.752;2023-03-25T08:28:13;99531.00;;;19.52;38.43
16613;BME280;8419;52.358;9.752;2023-03-25T08:31:05;99521.00;;;19.53;38.29
16613;BME280;8419;52.358;9.752;2023-03-25T08:33:53;99535.00;;;19.47;37.86
16613;BME280;8419;52.358;9.752;2023-03-25T08:36:39;99532.00;;;19.48;37.92
16613;BME280;8419;52.358;9.752;2023-03-25T08:39:24;99534.00;;;19.57;37.90
16613;BME280;8419;52.358;9.752;2023-03-25T08:42:14;99555.00;;;19.70;37.81
16613;BME280;8419;52.358;9.752;2023-03-25T08:44:59;99539.00;;;19.83;37.65
16613;BME280;8419;52.358;9.752;2023-03-25T08:47:44;99526.00;;;19.86;37.37
16613;BME280;8419;52.358;9.752;2023-03-25T08:50:30;99542.00;;;19.85;37.31
16613;BME280;8419;52.358;9.752;2023-03-25T08:53:15;99534.00;;;19.73;37.51
16613;BME280;8419;52.358;9.752;2023-03-25T08:56:01;99547.00;;;19.62;37.69
16613;BME280;8419;52.358;9.752;2023-03-25T08:58:48;99548.00;;;19.56;37.90
16613;BME280;8419;52.358;9.752;2023-03-25T09:01:34;99554.00;;;19.53;38.03
16613;BME280;8419;52.358;9.752;2023-03-25T09:04:19;99543.00;;;19.30;38.40
16613;BME280;8419;52.358;9.752;2023-03-25T09:07:08;99546.00;;;19.32;38.57
16613;BME280;8419;52.358;9.752;2023-03-25T09:09:54;99536.00;;;19.29;38.84
16613;BME280;8419;52.358;9.752;2023-03-25T09:12:43;99540.00;;;19.51;38.68
16613;BME280;8419;52.358;9.752;2023-03-25T09:15:28;99529.00;;;19.64;38.46
16613;BME280;8419;52.358;9.752;2023-03-25T09:18:14;99541.00;;;19.74;38.25
16613;BME280;8419;52.358;9.752;2023-03-25T09:21:00;99532.00;;;19.75;38.15
16613;BME280;8419;52.358;9.752;2023-03-25T09:23:45;99549.00;;;19.62;38.24
16613;BME280;8419;52.358;9.752;2023-03-25T09:26:30;99545.00;;;19.45;38.33
16613;BME280;8419;52.358;9.752;2023-03-25T09:29:16;99544.00;;;19.32;38.53
16613;BME280;8419;52.358;9.752;2023-03-25T09:32:03;99541.00;;;19.35;38.49
16613;BME280;8419;52.358;9.752;2023-03-25T09:34:48;99552.00;;;19.44;38.11
16613;BME280;8419;52.358;9.752;2023-03-25T09:37:33;99547.00;;;19.52;37.90
16613;BME280;8419;52.358;9.752;2023-03-25T09:40:21;99545.00;;;19.70;37.68
16613;BME280;8419;52.358;9.752;2023-03-25T09:43:28;99545.00;;;19.80;37.49
16613;BME280;8419;52.358;9.752;2023-03-25T09:46:18;99549.00;;;19.77;37.50
16613;BME280;8419;52.358;9.752;2023-03-25T09:49:06;99546.00;;;19.84;37.33
16613;BME280;8419;52.358;9.752;2023-03-25T09:51:58;99563.00;;;19.81;37.01
16613;BME280;8419;52.358;9.752;2023-03-25T09:54:47;99538.00;;;19.86;37.13
16613;BME280;8419;52.358;9.752;2023-03-25T09:57:42;99548.00;;;19.98;37.03
16613;BME280;8419;52.358;9.752;2023-03-25T10:00:30;99553.00;;;20.11;36.80
16613;BME280;8419;52.358;9.752;2023-03-25T10:03:25;99545.00;;;20.29;36.67
16613;BME280;8419;52.358;9.752;2023-03-25T10:06:15;99554.00;;;20.47;36.28
16613;BME280;8419;52.358;9.752;2023-03-25T10:12:36;99539.00;;;20.83;35.76
16613;BME280;8419;52.358;9.752;2023-03-25T10:15:31;99537.00;;;21.05;35.50
16613;BME280;8419;52.358;9.752;2023-03-25T10:18:33;99534.00;;;21.13;35.11
16613;BME280;8419;52.358;9.752;2023-03-25T10:21:23;99531.00;;;21.44;34.96
16613;BME280;8419;52.358;9.752;2023-03-25T10:24:16;99523.00;;;21.58;34.62
16613;BME280;8419;52.358;9.752;2023-03-25T10:27:07;99534.00;;;21.65;34.22
16613;BME280;8419;52.358;9.752;2023-03-25T10:30:01;99521.00;;;21.50;33.55
16613;BME280;8419;52.358;9.752;2023-03-25T10:32:53;99537.00;;;21.50;33.64
16613;BME280;8419;52.358;9.752;2023-03-25T10:35:44;99531.00;;;21.63;33.54
16613;BME280;8419;52.358;9.752;2023-03-25T10:38:34;99536.00;;;21.69;33.24
16613;BME280;8419;52.358;9.752;2023-03-25T10:41:25;99528.00;;;21.84;33.21
16613;BME280;8419;52.358;9.752;2023-03-25T10:44:12;99530.00;;;22.27;32.65
16613;BME280;8419;52.358;9.752;2023-03-25T10:47:00;99529.00;;;22.07;31.74
16613;BME280;8419;52.358;9.752;2023-03-25T10:49:48;99524.00;;;21.91;31.84
16613;BME280;8419;52.358;9.752;2023-03-25T10:52:35;99505.00;;;21.96;31.45
16613;BME280;8419;52.358;9.752;2023-03-25T10:55:24;99517.00;;;21.87;31.47
16613;BME280;8419;52.358;9.752;2023-03-25T10:58:15;99526.00;;;21.86;31.47
16613;BME280;8419;52.358;9.752;2023-03-25T11:01:10;99524.00;;;21.62;31.68
16613;BME280;8419;52.358;9.752;2023-03-25T11:03:57;99521.00;;;21.80;31.25
16613;BME280;8419;52.358;9.752;2023-03-25T11:06:47;99522.00;;;21.87;31.29
16613;BME280;8419;52.358;9.752;2023-03-25T11:09:36;99525.00;;;21.89;30.66
16613;BME280;8419;52.358;9.752;2023-03-25T11:12:23;99525.00;;;21.72;30.70
16613;BME280;8419;52.358;9.752;2023-03-25T11:15:13;99513.00;;;21.55;30.22
16613;BME280;8419;52.358;9.752;2023-03-25T11:18:02;99505.00;;;21.37;30.48
16613;BME280;8419;52.358;9.752;2023-03-25T11:20:50;99515.00;;;21.34;30.30
16613;BME280;8419;52.358;9.752;2023-03-25T11:23:46;99532.00;;;21.36;30.01
16613;BME280;8419;52.358;9.752;2023-03-25T11:26:37;99515.00;;;21.29;30.37
16613;BME280;8419;52.358;9.752;2023-03-25T11:29:25;99534.00;;;21.39;30.33
16613;BME280;8419;52.358;9.752;2023-03-25T11:32:14;99518.00;;;21.65;29.77
16613;BME280;8419;52.358;9.752;2023-03-25T11:35:02;99510.00;;;21.66;29.75
16613;BME280;8419;52.358;9.752;2023-03-25T11:37:55;99510.00;;;21.53;29.90
16613;BME280;8419;52.358;9.752;2023-03-25T11:40:49;99505.00;;;21.54;30.02
16613;BME280;8419;52.358;9.752;2023-03-25T11:43:37;99508.00;;;21.72;30.00
16613;BME280;8419;52.358;9.752;2023-03-25T11:46:24;99497.00;;;21.64;30.05
16613;BME280;8419;52.358;9.752;2023-03-25T11:49:13;99508.00;;;21.59;29.87
16613;BME280;8419;52.358;9.752;2023-03-25T11:52:05;99502.00;;;21.49;30.10
16613;BME280;8419;52.358;9.752;2023-03-25T11:54:53;99509.00;;;21.36;30.24
16613;BME280;8419;52.358;9.752;2023-03-25T11:57:39;99508.00;;;21.57;30.30
16613;BME280;8419;52.358;9.752;2023-03-25T12:00:31;99506.00;;;22.34;29.80
16613;BME280;8419;52.358;9.752;2023-03-25T12:03:26;99492.00;;;22.77;29.19
16613;BME280;8419;52.358;9.752;2023-03-25T12:06:17;99503.00;;;22.73;28.93
16613;BME280;8419;52.358;9.752;2023-03-25T12:09:08;99503.00;;;22.37;29.45
16613;BME280;8419;52.358;9.752;2023-03-25T12:12:09;99522.00;;;22.20;29.66
16613;BME280;8419;52.358;9.752;2023-03-25T12:15:05;99499.00;;;22.05;29.91
16613;BME280;8419;52.358;9.752;2023-03-25T12:18:09;99510.00;;;22.15;29.98
16613;BME280;8419;52.358;9.752;2023-03-25T12:21:01;99497.00;;;22.43;29.87
16613;BME280;8419;52.358;9.752;2023-03-25T12:24:00;99494.00;;;22.94;29.62
16613;BME280;8419;52.358;9.752;2023-03-25T12:27:00;99473.00;;;23.04;29.21
16613;BME280;8419;52.358;9.752;2023-03-25T12:29:53;99500.00;;;22.58;29.34
16613;BME280;8419;52.358;9.752;2023-03-25T12:32:46;99467.00;;;22.12;29.89
16613;BME280;8419;52.358;9.752;2023-03-25T12:35:40;99471.00;;;21.81;30.21
16613;BME280;8419;52.358;9.752;2023-03-25T12:38:37;99480.00;;;21.68;30.55
16613;BME280;8419;52.358;9.752;2023-03-25T12:41:30;99482.00;;;21.69;30.60
16613;BME280;8419;52.358;9.752;2023-03-25T12:44:29;99476.00;;;22.14;30.19
16613;BME280;8419;52.358;9.752;2023-03-25T12:47:23;99489.00;;;22.26;30.13
16613;BME280;8419;52.358;9.752;2023-03-25T12:50:36;99489.00;;;22.15;30.29
16613;BME280;8419;52.358;9.752;2023-03-25T12:53:37;99491.00;;;22.02;30.66
16613;BME280;8419;52.358;9.752;2023-03-25T12:56:34;99498.00;;;22.47;30.46
16613;BME280;8419;52.358;9.752;2023-03-25T12:59:37;99471.00;;;23.09;29.86
16613;BME280;8419;52.358;9.752;2023-03-25T13:05:53;99475.00;;;23.64;29.17
16613;BME280;8419;52.358;9.752;2023-03-25T13:08:43;99457.00;;;23.74;29.19
16613;BME280;8419;52.358;9.752;2023-03-25T13:11:37;99464.00;;;24.26;28.63
16613;BME280;8419;52.358;9.752;2023-03-25T13:14:27;99454.00;;;24.75;28.23
16613;BME280;8419;52.358;9.752;2023-03-25T13:17:21;99462.00;;;24.97;27.98
16613;BME280;8419;52.358;9.752;2023-03-25T13:20:11;99464.00;;;24.55;28.33
16613;BME280;8419;52.358;9.752;2023-03-25T13:22:58;99460.00;;;23.81;28.81
16613;BME280;8419;52.358;9.752;2023-03-25T13:25:51;99454.00;;;23.28;29.25
16613;BME280;8419;52.358;9.752;2023-03-25T13:28:44;99447.00;;;22.80;29.69
16613;BME280;8419;52.358;9.752;2023-03-25T13:31:34;99486.00;;;22.56;29.77
16613;BME280;8419;52.358;9.752;2023-03-25T13:34:25;99470.00;;;22.42;29.90
16613;BME280;8419;52.358;9.752;2023-03-25T13:37:15;99475.00;;;22.32;30.24
16613;BME280;8419;52.358;9.752;2023-03-25T13:40:12;99478.00;;;22.25;30.22
16613;BME280;8419;52.358;9.752;2023-03-25T13:43:13;99484.00;;;22.13;30.29
16613;BME280;8419;52.358;9.752;2023-03-25T13:46:06;99480.00;;;21.97;30.49
16613;BME280;8419;52.358;9.752;2023-03-25T13:48:55;99472.00;;;21.66;30.94
16613;BME280;8419;52.358;9.752;2023-03-25T13:51:42;99493.00;;;21.27;32.16
16613;BME280;8419;52.358;9.752;2023-03-25T13:54:31;99503.00;;;20.47;34.87
16613;BME280;8419;52.358;9.752;2023-03-25T13:57:41;99512.00;;;19.80;36.52
16613;BME280;8419;52.358;9.752;2023-03-25T14:00:52;99526.00;;;19.17;37.98
16613;BME280;8419;52.358;9.752;2023-03-25T14:07:46;99511.00;;;18.85;39.62
16613;BME280;8419;52.358;9.752;2023-03-25T14:14:09;99515.00;;;18.84;40.63
16613;BME280;8419;52.358;9.752;2023-03-25T14:16:58;99509.00;;;18.68;41.06
16613;BME280;8419;52.358;9.752;2023-03-25T14:19:48;99515.00;;;18.65;41.22
16613;BME280;8419;52.358;9.752;2023-03-25T14:22:40;99517.00;;;18.79;41.01
16613;BME280;8419;52.358;9.752;2023-03-25T14:25:33;99533.00;;;18.65;41.11
16613;BME280;8419;52.358;9.752;2023-03-25T14:28:34;99514.00;;;18.40;41.50
16613;BME280;8419;52.358;9.752;2023-03-25T14:31:29;99509.00;;;18.02;42.30
16613;BME280;8419;52.358;9.752;2023-03-25T14:34:33;99513.00;;;17.99;42.35
16613;BME280;8419;52.358;9.752;2023-03-25T14:37:26;99500.00;;;18.11;42.17
16613;BME280;8419;52.358;9.752;2023-03-25T14:40:47;99510.00;;;18.13;42.26
16613;BME280;8419;52.358;9.752;2023-03-25T14:43:37;99532.00;;;18.24;42.32
16613;BME280;8419;52.358;9.752;2023-03-25T14:46:34;99501.00;;;18.41;42.32
16613;BME280;8419;52.358;9.752;2023-03-25T14:49:21;99497.00;;;18.67;42.17
16613;BME280;8419;52.358;9.752;2023-03-25T14:52:09;99485.00;;;19.03;41.69
16613;BME280;8419;52.358;9.752;2023-03-25T14:55:04;99495.00;;;19.01;41.62
16613;BME280;8419;52.358;9.752;2023-03-25T14:57:56;99481.00;;;18.97;41.44
16613;BME280;8419;52.358;9.752;2023-03-25T15:00:51;99493.00;;;18.95;41.39
16613;BME280;8419;52.358;9.752;2023-03-25T15:03:39;99520.00;;;18.89;41.32
16613;BME280;8419;52.358;9.752;2023-03-25T15:06:32;99523.00;;;18.50;41.95
16613;BME280;8419;52.358;9.752;2023-03-25T15:09:19;99530.00;;;18.21;42.56
16613;BME280;8419;52.358;9.752;2023-03-25T15:12:12;99536.00;;;18.08;43.00
16613;BME280;8419;52.358;9.752;2023-03-25T15:15:07;99526.00;;;17.99;43.29
16613;BME280;8419;52.358;9.752;2023-03-25T15:18:09;99534.00;;;17.99;43.41
16613;BME280;8419;52.358;9.752;2023-03-25T15:21:02;99515.00;;;17.91;43.73
16613;BME280;8419;52.358;9.752;2023-03-25T15:23:49;99498.00;;;17.95;43.85
16613;BME280;8419;52.358;9.752;2023-03-25T15:26:39;99497.00;;;17.96;44.26
16613;BME280;8419;52.358;9.752;2023-03-25T15:32:51;99509.00;;;18.23;44.14